createdAt,value
2022-10-01T00:02:00.987Z,15.68
2022-10-01T00:04:28.822Z,15.82
2022-10-01T00:06:59.202Z,16.23
2022-10-01T00:09:27.298Z,15.55
2022-10-01T00:11:54.981Z,15.70
2022-10-01T00:14:22.774Z,15.68
2022-10-01T00:16:52.019Z,14.90
2022-10-01T00:19:19.675Z,15.57
2022-10-01T00:21:47.341Z,16.02
2022-10-01T00:24:15.144Z,15.73
2022-10-01T00:26:45.423Z,16.45
2022-10-01T00:29:15.447Z,16.80
2022-10-01T00:31:43.663Z,16.33
2022-10-01T00:35:05.653Z,17.75
2022-10-01T00:37:35.170Z,16.83
2022-10-01T00:40:03.180Z,16.13
2022-10-01T00:42:30.976Z,15.70
2022-10-01T00:44:58.934Z,17.00
2022-10-01T00:47:32.527Z,18.67
2022-10-01T00:50:07.367Z,17.30
2022-10-01T00:52:39.224Z,18.17
2022-10-01T00:55:12.846Z,18.92
2022-10-01T00:57:42.057Z,19.77
2022-10-01T01:00:12.214Z,21.58
2022-10-01T01:02:40.765Z,22.95
2022-10-01T01:05:13.647Z,23.42
2022-10-01T01:07:45.391Z,23.50
2022-10-01T01:10:15.138Z,23.33
2022-10-01T01:12:56.129Z,23.02
2022-10-01T01:15:31.692Z,21.85
2022-10-01T01:18:09.293Z,22.77
2022-10-01T01:21:00.244Z,21.85
2022-10-01T01:23:55.253Z,22.52
2022-10-01T01:26:33.911Z,20.52
2022-10-01T01:29:08.448Z,20.15
2022-10-01T01:31:41.329Z,21.73
2022-10-01T01:34:12.947Z,24.35
2022-10-01T01:36:46.120Z,24.38
2022-10-01T01:39:18.048Z,24.20
2022-10-01T01:41:50.975Z,23.23
2022-10-01T01:44:25.646Z,23.75
2022-10-01T01:46:56.818Z,23.40
2022-10-01T01:49:25.492Z,25.23
2022-10-01T01:51:58.037Z,22.75
2022-10-01T01:54:30.302Z,24.27
2022-10-01T01:56:59.467Z,24.17
2022-10-01T01:59:29.363Z,25.25
2022-10-01T02:01:58.905Z,26.27
2022-10-01T02:04:31.575Z,26.30
2022-10-01T02:07:29.058Z,31.98
2022-10-01T02:10:10.047Z,26.48
2022-10-01T02:12:49.954Z,21.95
2022-10-01T02:15:27.506Z,24.75
2022-10-01T02:18:00.528Z,21.33
2022-10-01T02:20:32.154Z,20.67
2022-10-01T02:23:03.622Z,20.38
2022-10-01T02:25:38.635Z,21.45
2022-10-01T02:28:10.307Z,21.58
2022-10-01T02:30:41.946Z,24.00
2022-10-01T02:33:12.498Z,25.40
2022-10-01T02:35:42.521Z,26.48
2022-10-01T02:38:11.515Z,25.20
2022-10-01T02:40:43.268Z,24.42
2022-10-01T02:43:16.490Z,24.10
2022-10-01T02:45:48.291Z,24.80
2022-10-01T02:48:17.499Z,25.60
2022-10-01T02:50:51.055Z,24.63
2022-10-01T02:53:23.162Z,27.38
2022-10-01T02:58:19.433Z,26.30
2022-10-01T03:00:48.484Z,25.40
2022-10-01T03:03:16.200Z,29.02
2022-10-01T03:05:44.025Z,28.05
2022-10-01T03:08:11.759Z,27.05
2022-10-01T03:10:42.446Z,26.73
2022-10-01T03:13:13.713Z,26.27
2022-10-01T03:15:41.478Z,28.55
2022-10-01T03:18:10.569Z,27.48
2022-10-01T03:20:38.267Z,27.08
2022-10-01T03:23:05.931Z,28.08
2022-10-01T03:25:33.616Z,27.30
2022-10-01T03:28:01.427Z,25.80
2022-10-01T03:30:30.287Z,25.60
2022-10-01T03:32:57.967Z,23.73
2022-10-01T03:35:26.973Z,25.02
2022-10-01T03:37:54.707Z,23.98
2022-10-01T03:40:22.394Z,23.63
2022-10-01T03:42:51.055Z,24.70
2022-10-01T03:45:18.772Z,21.90
2022-10-01T03:47:52.750Z,22.42
2022-10-01T03:50:21.922Z,21.90
2022-10-01T03:52:51.287Z,24.00
2022-10-01T03:55:19.258Z,22.90
2022-10-01T03:57:47.237Z,21.30
2022-10-01T04:00:14.959Z,21.35
2022-10-01T04:02:42.769Z,20.38
2022-10-01T04:05:10.660Z,21.92
2022-10-01T04:07:38.372Z,23.73
2022-10-01T04:10:08.908Z,25.33
2022-10-01T04:12:36.602Z,22.10
2022-10-01T04:15:04.552Z,20.75
2022-10-01T04:17:32.258Z,19.58
2022-10-01T04:20:00.264Z,18.10
2022-10-01T04:22:27.963Z,17.85
2022-10-01T04:24:55.634Z,18.92
2022-10-01T04:27:25.935Z,29.55
2022-10-01T04:29:53.648Z,22.60
2022-10-01T04:32:21.527Z,23.25
2022-10-01T04:34:55.185Z,22.25
2022-10-01T04:37:23.777Z,22.92
2022-10-01T04:39:51.488Z,23.08
2022-10-01T04:42:19.211Z,23.25
2022-10-01T04:44:48.525Z,21.02
2022-10-01T04:47:16.247Z,18.77
2022-10-01T04:49:43.861Z,21.02
2022-10-01T04:52:11.582Z,20.63
2022-10-01T04:54:39.251Z,20.75
2022-10-01T04:57:07.014Z,20.48
2022-10-01T04:59:34.770Z,21.98
2022-10-01T05:02:03.951Z,22.08
2022-10-01T05:04:31.725Z,20.38
2022-10-01T05:06:59.462Z,19.65
2022-10-01T05:09:27.140Z,18.35
2022-10-01T05:11:54.826Z,21.50
2022-10-01T05:14:22.545Z,18.90
2022-10-01T05:16:50.287Z,19.77
2022-10-01T05:19:19.286Z,17.90
2022-10-01T05:21:46.980Z,17.77
2022-10-01T05:24:16.190Z,18.00
2022-10-01T05:26:43.900Z,18.05
2022-10-01T05:29:11.626Z,17.50
2022-10-01T05:31:44.374Z,16.27
2022-10-01T05:34:12.451Z,15.77
2022-10-01T05:36:41.874Z,14.38
2022-10-01T05:39:09.717Z,13.55
2022-10-01T05:41:37.813Z,12.85
2022-10-01T05:44:06.063Z,13.35
2022-10-01T05:46:33.899Z,12.70
2022-10-01T05:49:01.719Z,11.63
2022-10-01T05:51:30.184Z,12.30
2022-10-01T05:54:01.180Z,11.80
2022-10-01T05:56:28.918Z,11.95
2022-10-01T05:58:56.742Z,10.98
2022-10-01T06:01:24.460Z,10.60
2022-10-01T06:03:52.192Z,11.20
2022-10-01T06:06:23.536Z,11.82
2022-10-01T06:08:51.239Z,12.18
2022-10-01T06:11:22.531Z,11.32
2022-10-01T06:13:50.936Z,10.83
2022-10-01T06:16:18.669Z,10.90
2022-10-01T06:18:48.127Z,10.48
2022-10-01T06:21:15.858Z,10.23
2022-10-01T06:23:44.320Z,10.48
2022-10-01T06:26:12.109Z,10.32
2022-10-01T06:28:41.159Z,10.05
2022-10-01T06:31:08.843Z,10.20
2022-10-01T06:33:36.898Z,9.15
2022-10-01T06:36:05.507Z,8.90
2022-10-01T06:38:33.176Z,9.15
2022-10-01T06:41:03.786Z,8.85
2022-10-01T06:43:32.867Z,8.43
2022-10-01T06:46:04.015Z,6.30
2022-10-01T06:48:32.442Z,5.73
2022-10-01T06:51:00.409Z,5.15
2022-10-01T06:53:29.180Z,4.72
2022-10-01T06:55:56.935Z,4.45
2022-10-01T06:58:26.561Z,5.25
2022-10-01T07:01:00.232Z,4.85
2022-10-01T07:03:31.001Z,3.72
2022-10-01T07:06:03.582Z,3.28
2022-10-01T07:08:31.349Z,3.70
2022-10-01T07:11:03.588Z,3.33
2022-10-01T07:13:31.816Z,2.90
2022-10-01T07:15:59.583Z,2.97
2022-10-01T07:18:27.302Z,3.28
2022-10-01T07:20:57.752Z,2.75
2022-10-01T07:23:25.509Z,4.90
2022-10-01T07:25:53.260Z,3.38
2022-10-01T07:28:25.608Z,3.13
2022-10-01T07:30:59.924Z,3.28
2022-10-01T07:33:28.140Z,2.95
2022-10-01T07:35:57.194Z,3.50
2022-10-01T07:38:24.850Z,2.80
2022-10-01T07:40:54.581Z,3.08
2022-10-01T07:43:22.436Z,3.30
2022-10-01T07:45:52.448Z,3.47
2022-10-01T07:48:20.307Z,3.70
2022-10-01T07:50:48.094Z,3.45
2022-10-01T07:53:17.648Z,3.80
2022-10-01T07:55:45.769Z,4.18
2022-10-01T07:58:14.038Z,3.50
2022-10-01T08:00:43.334Z,3.55
2022-10-01T08:03:12.667Z,3.17
2022-10-01T08:05:43.234Z,3.55
2022-10-01T08:08:10.975Z,3.30
2022-10-01T08:10:41.418Z,3.65
2022-10-01T08:13:14.452Z,3.92
2022-10-01T08:15:42.550Z,4.07
2022-10-01T08:18:11.260Z,3.97
2022-10-01T08:20:40.255Z,4.30
2022-10-01T08:23:10.296Z,3.80
2022-10-01T08:25:41.649Z,4.00
2022-10-01T08:28:11.017Z,3.88
2022-10-01T08:30:40.619Z,4.07
2022-10-01T08:33:11.079Z,4.03
2022-10-01T08:35:40.149Z,3.80
2022-10-01T08:38:09.406Z,3.60
2022-10-01T08:40:43.099Z,3.92
2022-10-01T08:43:26.409Z,4.25
2022-10-01T08:45:59.836Z,4.07
2022-10-01T08:48:36.316Z,3.95
2022-10-01T08:51:09.141Z,4.28
2022-10-01T08:53:41.056Z,3.90
2022-10-01T08:56:16.084Z,4.20
2022-10-01T08:58:49.682Z,3.60
2022-10-01T09:01:17.407Z,3.42
2022-10-01T09:03:45.114Z,3.47
2022-10-01T09:06:20.894Z,3.05
2022-10-01T09:09:09.472Z,3.13
2022-10-01T09:11:51.156Z,3.05
2022-10-01T09:14:37.687Z,3.33
2022-10-01T09:17:13.730Z,2.80
2022-10-01T09:19:54.389Z,3.30
2022-10-01T09:22:31.676Z,3.03
2022-10-01T09:25:06.987Z,3.10
2022-10-01T09:27:35.231Z,3.55
2022-10-01T09:30:08.241Z,3.53
2022-10-01T09:32:40.239Z,3.38
2022-10-01T09:35:21.824Z,3.40
2022-10-01T09:37:57.258Z,3.65
2022-10-01T09:40:33.983Z,3.50
2022-10-01T09:43:02.135Z,3.45
2022-10-01T09:45:31.251Z,3.15
2022-10-01T09:48:05.900Z,3.20
2022-10-01T09:50:41.130Z,2.92
2022-10-01T09:53:17.575Z,3.60
2022-10-01T09:55:48.870Z,3.28
2022-10-01T09:58:19.687Z,3.60
2022-10-01T10:00:51.494Z,3.60
2022-10-01T10:03:28.625Z,3.72
2022-10-01T10:05:57.143Z,3.83
2022-10-01T10:08:29.848Z,3.60
2022-10-01T10:11:00.601Z,4.13
2022-10-01T10:13:35.238Z,3.88
2022-10-01T10:16:16.662Z,4.10
2022-10-01T10:18:52.294Z,3.60
2022-10-01T10:21:25.366Z,3.65
2022-10-01T10:23:55.075Z,3.08
2022-10-01T10:26:28.411Z,2.65
2022-10-01T10:28:57.338Z,2.83
2022-10-01T10:31:29.008Z,2.65
2022-10-01T10:34:06.398Z,2.85
2022-10-01T10:36:37.128Z,2.55
2022-10-01T10:39:07.031Z,2.88
2022-10-01T10:41:35.723Z,2.95
2022-10-01T10:44:07.518Z,2.78
2022-10-01T10:46:43.973Z,2.95
2022-10-01T10:49:22.091Z,2.53
2022-10-01T10:51:53.860Z,2.35
2022-10-01T10:54:29.369Z,2.72
2022-10-01T10:57:02.323Z,2.25
2022-10-01T10:59:32.761Z,2.40
2022-10-01T11:02:05.708Z,2.65
2022-10-01T11:04:41.076Z,2.30
2022-10-01T11:07:10.774Z,2.22
2022-10-01T11:09:54.523Z,2.15
2022-10-01T11:12:38.397Z,2.20
2022-10-01T11:15:27.374Z,2.40
2022-10-01T11:18:14.577Z,2.42
2022-10-01T11:20:50.557Z,2.47
2022-10-01T11:23:42.351Z,2.30
2022-10-01T11:26:20.594Z,2.40
2022-10-01T11:29:00.345Z,2.05
2022-10-01T11:31:36.314Z,2.28
2022-10-01T11:34:22.827Z,1.95
2022-10-01T11:36:59.357Z,2.10
2022-10-01T11:39:30.892Z,2.20
2022-10-01T11:42:03.535Z,2.50
2022-10-01T11:44:36.356Z,2.05
2022-10-01T11:47:08.527Z,2.45
2022-10-01T11:52:24.599Z,2.40
2022-10-01T11:55:20.220Z,2.20
2022-10-01T11:58:07.391Z,2.38
2022-10-01T12:00:37.771Z,2.33
2022-10-01T12:03:14.114Z,2.42
2022-10-01T12:05:44.250Z,2.35
2022-10-01T12:08:19.200Z,2.40
2022-10-01T12:10:54.992Z,2.42
2022-10-01T12:13:29.624Z,2.63
2022-10-01T12:16:02.182Z,2.25
2022-10-01T12:18:34.588Z,2.30
2022-10-01T12:21:08.957Z,2.47
2022-10-01T12:23:44.938Z,2.45
2022-10-01T12:26:25.717Z,2.55
2022-10-01T12:29:00.463Z,2.88
2022-10-01T12:31:36.646Z,2.90
2022-10-01T12:34:14.306Z,2.72
2022-10-01T12:36:54.286Z,2.15
2022-10-01T12:39:37.464Z,2.95
2022-10-01T12:42:25.856Z,2.42
2022-10-01T12:45:04.001Z,2.75
2022-10-01T12:47:43.731Z,3.13
2022-10-01T12:50:35.688Z,2.83
2022-10-01T12:53:33.873Z,2.40
2022-10-01T12:56:07.903Z,2.80
2022-10-01T12:59:06.428Z,3.08
2022-10-01T13:01:46.701Z,3.47
2022-10-01T13:04:31.977Z,2.97
2022-10-01T13:07:17.607Z,3.08
2022-10-01T13:09:53.749Z,3.63
2022-10-01T13:12:44.330Z,3.38
2022-10-01T13:15:22.382Z,5.18
2022-10-01T13:17:56.384Z,3.75
2022-10-01T13:20:32.636Z,3.42
2022-10-01T13:23:05.911Z,3.80
2022-10-01T13:25:43.928Z,3.45
2022-10-01T13:28:19.540Z,3.00
2022-10-01T13:30:58.975Z,3.25
2022-10-01T13:33:29.368Z,3.13
2022-10-01T13:35:59.401Z,3.40
2022-10-01T13:38:40.545Z,3.13
2022-10-01T13:41:20.081Z,3.28
2022-10-01T13:43:56.816Z,4.07
2022-10-01T13:46:27.699Z,3.42
2022-10-01T13:48:57.185Z,3.75
2022-10-01T13:51:36.031Z,4.07
2022-10-01T13:54:07.860Z,3.40
2022-10-01T13:56:38.384Z,3.78
2022-10-01T13:59:27.596Z,3.55
2022-10-01T14:01:55.501Z,3.90
2022-10-01T14:04:29.182Z,3.80
2022-10-01T14:07:00.904Z,3.35
2022-10-01T14:09:32.562Z,3.33
2022-10-01T14:12:19.964Z,3.00
2022-10-01T14:15:11.399Z,2.83
2022-10-01T14:17:39.728Z,3.30
2022-10-01T14:20:09.787Z,3.47
2022-10-01T14:22:51.779Z,3.50
2022-10-01T14:25:41.742Z,4.15
2022-10-01T14:28:25.551Z,3.70
2022-10-01T14:30:59.638Z,3.40
2022-10-01T14:33:58.680Z,3.35
2022-10-01T14:36:32.726Z,3.08
2022-10-01T14:39:15.364Z,2.40
2022-10-01T14:41:43.701Z,2.42
2022-10-01T14:44:28.421Z,2.10
2022-10-01T14:46:58.306Z,2.35
2022-10-01T14:49:27.892Z,2.25
2022-10-01T14:52:01.086Z,1.40
2022-10-01T14:54:31.015Z,1.70
2022-10-01T14:56:58.786Z,1.70
2022-10-01T14:59:35.599Z,1.50
2022-10-01T15:02:17.478Z,1.63
2022-10-01T15:04:47.327Z,1.65
2022-10-01T15:07:17.135Z,1.63
2022-10-01T15:09:45.638Z,1.60
2022-10-01T15:12:14.642Z,1.50
2022-10-01T15:14:44.599Z,1.73
2022-10-01T15:17:19.314Z,1.75
2022-10-01T15:19:52.111Z,1.83
2022-10-01T15:22:25.272Z,1.55
2022-10-01T15:24:57.000Z,1.60
2022-10-01T15:27:26.003Z,1.60
2022-10-01T15:29:58.718Z,1.67
2022-10-01T15:32:28.351Z,1.55
2022-10-01T15:34:58.376Z,1.67
2022-10-01T15:37:31.283Z,1.60
2022-10-01T15:40:00.804Z,2.00
2022-10-01T15:42:31.968Z,3.72
2022-10-01T15:45:23.327Z,1.63
2022-10-01T15:47:52.235Z,1.55
2022-10-01T15:50:22.147Z,1.60
2022-10-01T15:52:55.683Z,1.23
2022-10-01T15:55:29.689Z,1.30
2022-10-01T15:58:04.807Z,1.60
2022-10-01T16:00:56.056Z,1.60
2022-10-01T16:03:27.357Z,1.70
2022-10-01T16:05:56.316Z,1.90
2022-10-01T16:08:32.847Z,1.60
2022-10-01T16:11:18.308Z,1.88
2022-10-01T16:13:48.760Z,1.98
2022-10-01T16:16:28.816Z,1.92
2022-10-01T16:19:00.848Z,1.90
2022-10-01T16:21:29.300Z,1.73
2022-10-01T16:23:57.720Z,1.80
2022-10-01T16:26:40.061Z,1.63
2022-10-01T16:31:48.973Z,1.77
2022-10-01T16:34:19.519Z,1.73
2022-10-01T16:36:47.689Z,2.33
2022-10-01T16:39:15.588Z,2.42
2022-10-01T16:41:44.947Z,5.28
2022-10-01T16:44:14.951Z,3.75
2022-10-01T16:46:43.001Z,3.38
2022-10-01T16:49:15.198Z,3.80
2022-10-01T16:54:22.313Z,3.70
2022-10-01T16:56:51.666Z,3.28
2022-10-01T16:59:21.232Z,3.10
2022-10-01T17:01:51.114Z,2.10
2022-10-01T17:04:20.314Z,2.05
2022-10-01T17:06:48.164Z,1.90
2022-10-01T17:09:15.830Z,1.67
2022-10-01T17:11:43.548Z,2.00
2022-10-01T17:14:16.706Z,1.73
2022-10-01T17:16:45.379Z,1.70
2022-10-01T17:19:14.648Z,2.25
2022-10-01T17:21:43.683Z,2.50
2022-10-01T17:24:11.768Z,3.05
2022-10-01T17:26:41.504Z,2.55
2022-10-01T17:29:10.107Z,2.70
2022-10-01T17:31:40.555Z,3.85
2022-10-01T17:34:08.742Z,2.33
2022-10-01T17:36:36.652Z,1.58
2022-10-01T17:39:05.968Z,1.48
2022-10-01T17:41:33.665Z,1.40
2022-10-01T17:44:01.652Z,1.38
2022-10-01T17:46:30.810Z,1.50
2022-10-01T17:48:58.537Z,1.25
2022-10-01T17:51:26.686Z,1.20
2022-10-01T17:53:55.447Z,1.20
2022-10-01T17:56:24.520Z,1.23
2022-10-01T17:58:54.043Z,1.40
2022-10-01T18:01:22.974Z,1.40
2022-10-01T18:03:55.158Z,1.65
2022-10-01T18:08:55.464Z,0.95
2022-10-01T18:11:26.317Z,1.83
2022-10-01T18:13:54.199Z,1.27
2022-10-01T18:16:22.835Z,1.30
2022-10-01T18:21:43.413Z,1.00
2022-10-01T18:24:11.230Z,1.30
2022-10-01T18:26:40.327Z,1.20
2022-10-01T18:29:08.068Z,1.33
2022-10-01T18:31:37.275Z,1.30
2022-10-01T18:34:16.242Z,1.50
2022-10-01T18:36:54.495Z,1.15
2022-10-01T18:39:28.716Z,1.30
2022-10-01T18:41:58.397Z,1.20
2022-10-01T18:44:27.011Z,1.20
2022-10-01T18:47:10.043Z,1.30
2022-10-01T18:50:17.793Z,1.35
2022-10-01T18:52:59.687Z,1.80
2022-10-01T18:55:40.477Z,1.50
2022-10-01T18:58:33.228Z,1.40
2022-10-01T19:01:11.145Z,1.00
2022-10-01T19:04:26.775Z,0.95
2022-10-01T19:07:09.522Z,1.20
2022-10-01T19:09:52.521Z,1.10
2022-10-01T19:12:37.500Z,1.20
2022-10-01T19:15:17.755Z,1.20
2022-10-01T19:18:22.051Z,1.38
2022-10-01T19:21:03.408Z,1.13
2022-10-01T19:23:42.209Z,0.80
2022-10-01T19:26:17.849Z,0.95
2022-10-01T19:28:59.663Z,1.02
2022-10-01T19:31:37.015Z,1.25
2022-10-01T19:34:10.871Z,1.25
2022-10-01T19:36:42.483Z,1.40
2022-10-01T19:39:15.828Z,1.48
2022-10-01T19:41:48.598Z,1.67
2022-10-01T19:44:21.152Z,2.25
2022-10-01T19:46:51.216Z,2.45
2022-10-01T19:49:27.494Z,2.17
2022-10-01T19:51:58.665Z,2.28
2022-10-01T19:54:34.581Z,2.70
2022-10-01T19:57:13.306Z,1.75
2022-10-01T19:59:41.960Z,1.50
2022-10-01T20:02:16.809Z,1.33
2022-10-01T20:04:51.813Z,1.27
2022-10-01T20:07:27.779Z,1.13
2022-10-01T20:10:05.503Z,1.20
2022-10-01T20:12:40.265Z,1.20
2022-10-01T20:15:21.235Z,1.63
2022-10-01T20:18:04.750Z,1.25
2022-10-01T20:20:41.144Z,1.00
2022-10-01T20:23:21.991Z,8.00
2022-10-01T20:25:55.943Z,1.33
2022-10-01T20:28:28.519Z,1.20
2022-10-01T20:31:06.972Z,1.02
2022-10-01T20:33:44.207Z,1.17
2022-10-01T20:36:18.007Z,1.40
2022-10-01T20:38:49.746Z,1.05
2022-10-01T20:41:19.953Z,1.33
2022-10-01T20:43:52.212Z,1.10
2022-10-01T20:46:34.611Z,1.00
2022-10-01T20:49:11.285Z,0.93
2022-10-01T20:51:46.139Z,1.17
2022-10-01T20:54:19.218Z,1.20
2022-10-01T20:56:52.835Z,0.90
2022-10-01T20:59:27.427Z,0.88
2022-10-01T21:02:02.319Z,0.90
2022-10-01T21:04:35.512Z,1.90
2022-10-01T21:07:21.097Z,1.15
2022-10-01T21:09:53.746Z,4.90
2022-10-01T21:12:25.179Z,1.38
2022-10-01T21:14:55.117Z,0.93
2022-10-01T21:17:35.160Z,1.23
2022-10-01T21:20:21.258Z,0.90
2022-10-01T21:23:08.929Z,0.90
2022-10-01T21:25:47.870Z,1.10
2022-10-01T21:28:33.248Z,1.40
2022-10-01T21:31:13.772Z,1.45
2022-10-01T21:33:47.745Z,1.50
2022-10-01T21:36:23.078Z,1.45
2022-10-01T21:38:56.866Z,1.27
2022-10-01T21:41:38.405Z,2.42
2022-10-01T21:44:18.028Z,1.90
2022-10-01T21:46:53.245Z,1.52
2022-10-01T21:49:34.891Z,1.15
2022-10-01T21:52:14.336Z,1.10
2022-10-01T21:55:07.086Z,1.20
2022-10-01T21:57:56.282Z,1.02
2022-10-01T22:00:28.689Z,1.10
2022-10-01T22:03:12.299Z,1.15
2022-10-01T22:05:50.295Z,1.13
2022-10-01T22:08:30.038Z,1.02
2022-10-01T22:11:01.669Z,1.40
2022-10-01T22:13:33.926Z,1.10
2022-10-01T22:16:08.039Z,1.60
2022-10-01T22:18:42.095Z,1.60
2022-10-01T22:21:14.601Z,1.60
2022-10-01T22:23:49.730Z,1.55
2022-10-01T22:26:21.575Z,1.67
2022-10-01T22:28:54.184Z,1.58
2022-10-01T22:31:33.506Z,1.50
2022-10-01T22:34:06.774Z,1.75
2022-10-01T22:36:45.335Z,1.30
2022-10-01T22:39:19.386Z,1.50
2022-10-01T22:41:51.959Z,1.30
2022-10-01T22:44:21.751Z,1.30
2022-10-01T22:47:12.134Z,1.33
2022-10-01T22:49:51.486Z,1.30
2022-10-01T22:52:29.139Z,1.65
2022-10-01T22:55:08.527Z,1.13
2022-10-01T22:57:50.575Z,1.35
2022-10-01T23:00:21.196Z,1.58
2022-10-01T23:02:59.471Z,1.65
2022-10-01T23:05:41.868Z,1.50
2022-10-01T23:08:19.401Z,1.63
2022-10-01T23:11:00.271Z,1.55
2022-10-01T23:13:38.025Z,1.60
2022-10-01T23:16:13.756Z,1.45
2022-10-01T23:18:51.830Z,1.52
2022-10-01T23:21:32.568Z,1.80
2022-10-01T23:24:09.781Z,1.83
2022-10-01T23:26:47.501Z,1.92
2022-10-01T23:29:36.726Z,1.83
2022-10-01T23:32:14.787Z,2.08
2022-10-01T23:34:52.105Z,1.80
2022-10-01T23:37:44.946Z,1.90
2022-10-01T23:40:16.197Z,1.92
2022-10-01T23:42:56.255Z,1.90
2022-10-01T23:45:29.465Z,1.48
2022-10-01T23:48:05.376Z,1.75
2022-10-01T23:50:38.773Z,2.70
2022-10-01T23:53:14.316Z,2.00
2022-10-01T23:56:06.147Z,2.05
2022-10-01T23:58:42.986Z,3.78
